Time;durP1;ratioP1;P1;durP2;ratioP2;P2;SDS_P1;SDS_P2;PMS_P1;PMS_P2;Temp;Humidity;BMP_temperature;BMP_pressure;BME280_temperature;BME280_humidity;BME280_pressure;Samples;Min_cycle;Max_cycle;Signal;HPM_P1;HPM_P2
2023/08/18 00:00:45;;;;;;;;;;;24.60;87.50;;;;;;5025614;28;19940;-82
2023/08/18 00:03:12;;;;;;;;;;;24.60;87.60;;;;;;5026117;28;19939;-82
2023/08/18 00:05:38;;;;;;;;;;;24.60;87.60;;;;;;5027590;28;19940;-81
2023/08/18 00:08:05;;;;;;;;;;;24.50;87.70;;;;;;5027459;28;19929;-82
2023/08/18 00:10:32;;;;;;;;;;;24.50;87.70;;;;;;5026713;28;19936;-82
2023/08/18 00:12:59;;;;;;;;;;;24.50;87.80;;;;;;5027887;28;19929;-81
2023/08/18 00:15:26;;;;;;;;;;;24.50;87.80;;;;;;5025257;28;19940;-82
2023/08/18 00:17:52;;;;;;;;;;;24.50;87.90;;;;;;5022874;28;19940;-80
2023/08/18 00:20:19;;;;;;;;;;;24.40;87.90;;;;;;5028823;28;19940;-82
2023/08/18 00:22:47;;;;;;;;;;;24.40;88.00;;;;;;5024560;28;19935;-82
2023/08/18 00:25:13;;;;;;;;;;;24.40;88.00;;;;;;5026962;28;19929;-82
2023/08/18 00:27:40;;;;;;;;;;;24.30;88.00;;;;;;5030334;28;19945;-82
2023/08/18 00:30:10;;;;;;;;;;;24.30;88.10;;;;;;5032416;28;19940;-83
2023/08/18 00:32:36;;;;;;;;;;;24.30;88.10;;;;;;5030022;28;19982;-83
2023/08/18 00:35:03;;;;;;;;;;;24.30;88.20;;;;;;5027577;28;20016;-84
2023/08/18 00:37:30;;;;;;;;;;;24.30;88.30;;;;;;5031305;28;19933;-81
2023/08/18 00:39:56;;;;;;;;;;;24.20;88.30;;;;;;5030713;28;19936;-82
2023/08/18 00:42:23;;;;;;;;;;;24.20;88.30;;;;;;5031449;28;19929;-83
2023/08/18 00:44:49;;;;;;;;;;;24.20;89.20;;;;;;5031172;28;19933;-82
2023/08/18 00:47:17;;;;;;;;;;;24.20;88.50;;;;;;5028721;28;20396;-81
2023/08/18 00:49:44;;;;;;;;;;;24.20;88.50;;;;;;5028824;28;19952;-83
2023/08/18 00:52:11;;;;;;;;;;;24.10;88.50;;;;;;5032881;28;19954;-82
2023/08/18 00:54:37;;;;;;;;;;;24.10;88.60;;;;;;5028022;28;19929;-82
2023/08/18 00:57:04;;;;;;;;;;;24.10;88.60;;;;;;5031351;28;19933;-83
2023/08/18 00:59:31;;;;;;;;;;;24.10;88.60;;;;;;5031551;28;19929;-83
2023/08/18 01:02:02;;;;;;;;;;;24.10;88.70;;;;;;5027882;28;19951;-82
2023/08/18 01:04:30;;;;;;;;;;;24.00;88.60;;;;;;5029139;28;19992;-83
2023/08/18 01:06:57;;;;;;;;;;;24.00;88.70;;;;;;5030507;28;19929;-82
2023/08/18 01:09:24;;;;;;;;;;;24.00;88.80;;;;;;5026468;28;19929;-82
2023/08/18 01:11:56;;;;;;;;;;;24.00;88.90;;;;;;5025895;28;19933;-82
2023/08/18 01:14:27;;;;;;;;;;;24.00;88.90;;;;;;5022869;28;19951;-83
2023/08/18 01:16:57;;;;;;;;;;;23.90;89.60;;;;;;5026138;28;19948;-82
2023/08/18 01:19:24;;;;;;;;;;;23.90;89.00;;;;;;5027792;28;20424;-82
2023/08/18 01:21:54;;;;;;;;;;;23.90;89.00;;;;;;5042293;23;19960;-79
2023/08/18 01:24:24;;;;;;;;;;;23.80;89.00;;;;;;5004630;28;19976;-79
2023/08/18 01:26:51;;;;;;;;;;;23.80;89.10;;;;;;5006651;28;19972;-79
2023/08/18 01:29:18;;;;;;;;;;;23.80;89.10;;;;;;4998822;28;20343;-78
2023/08/18 01:31:45;;;;;;;;;;;23.70;89.10;;;;;;5008025;28;19929;-79
2023/08/18 01:34:15;;;;;;;;;;;23.70;89.10;;;;;;5011784;28;20015;-78
2023/08/18 01:36:42;;;;;;;;;;;23.70;89.20;;;;;;5006905;28;19937;-78
2023/08/18 01:39:10;;;;;;;;;;;23.70;89.30;;;;;;5003502;28;20390;-78
2023/08/18 01:41:39;;;;;;;;;;;23.60;89.20;;;;;;5004209;28;20552;-79
2023/08/18 01:44:06;;;;;;;;;;;23.60;89.20;;;;;;5002297;28;19935;-79
2023/08/18 01:46:32;;;;;;;;;;;23.60;90.00;;;;;;5002618;28;19929;-78
2023/08/18 01:48:59;;;;;;;;;;;23.60;89.30;;;;;;5008151;28;19929;-79
2023/08/18 01:51:26;;;;;;;;;;;23.50;89.30;;;;;;5005241;28;19929;-79
2023/08/18 01:53:52;;;;;;;;;;;23.50;89.30;;;;;;5003176;28;19937;-79
2023/08/18 01:56:19;;;;;;;;;;;23.50;89.30;;;;;;5006149;28;19952;-77
2023/08/18 01:58:46;;;;;;;;;;;23.50;90.00;;;;;;5006405;28;19929;-79
2023/08/18 02:01:13;;;;;;;;;;;23.50;89.30;;;;;;5003069;28;19929;-80
2023/08/18 02:03:42;;;;;;;;;;;23.40;89.30;;;;;;5008980;28;19940;-80
2023/08/18 02:06:08;;;;;;;;;;;23.40;89.30;;;;;;5004214;28;19929;-79
2023/08/18 02:08:35;;;;;;;;;;;23.40;89.30;;;;;;5002103;28;20396;-80
2023/08/18 02:11:02;;;;;;;;;;;23.30;89.20;;;;;;5003606;28;20307;-78
2023/08/18 02:13:28;;;;;;;;;;;23.40;89.30;;;;;;5002371;28;20589;-79
2023/08/18 02:15:56;;;;;;;;;;;23.40;89.30;;;;;;5000497;28;19940;-78
2023/08/18 02:18:23;;;;;;;;;;;23.30;89.30;;;;;;5003122;28;19929;-78
2023/08/18 02:20:54;;;;;;;;;;;23.20;89.30;;;;;;5004562;28;20334;-78
2023/08/18 02:23:21;;;;;;;;;;;23.30;89.40;;;;;;5002436;28;19947;-76
2023/08/18 02:25:47;;;;;;;;;;;23.30;89.40;;;;;;5003602;28;20421;-78
2023/08/18 02:28:15;;;;;;;;;;;23.20;89.30;;;;;;5003984;28;19929;-79
2023/08/18 02:30:42;;;;;;;;;;;23.20;89.30;;;;;;5000741;28;19933;-78
2023/08/18 02:33:10;;;;;;;;;;;23.20;89.40;;;;;;5002181;28;19937;-78
2023/08/18 02:35:37;;;;;;;;;;;23.20;89.40;;;;;;5000872;28;19937;-79
2023/08/18 02:38:03;;;;;;;;;;;23.10;89.30;;;;;;4999990;28;19930;-78
2023/08/18 02:40:30;;;;;;;;;;;23.10;89.40;;;;;;5003868;28;19930;-79
2023/08/18 02:42:56;;;;;;;;;;;23.10;89.40;;;;;;5001405;28;19940;-79
2023/08/18 02:45:23;;;;;;;;;;;23.10;89.40;;;;;;5001472;28;19929;-77
2023/08/18 02:47:49;;;;;;;;;;;23.10;89.40;;;;;;5005359;28;19933;-79
2023/08/18 02:50:17;;;;;;;;;;;23.10;89.40;;;;;;4997919;28;19941;-79
2023/08/18 02:52:44;;;;;;;;;;;23.00;89.40;;;;;;5008440;28;19929;-78
2023/08/18 02:55:10;;;;;;;;;;;23.00;89.40;;;;;;5007101;28;19929;-79
2023/08/18 02:57:37;;;;;;;;;;;23.00;89.40;;;;;;5007202;28;19952;-79
2023/08/18 03:00:05;;;;;;;;;;;23.00;89.40;;;;;;5008354;28;19929;-79
2023/08/18 03:02:31;;;;;;;;;;;22.90;89.30;;;;;;5006528;28;20299;-78
2023/08/18 03:04:58;;;;;;;;;;;22.90;89.30;;;;;;5008487;28;20444;-78
2023/08/18 03:07:26;;;;;;;;;;;22.90;89.30;;;;;;5004357;28;19930;-78
2023/08/18 03:09:52;;;;;;;;;;;22.80;89.20;;;;;;4998192;28;19933;-79
2023/08/18 03:12:19;;;;;;;;;;;22.80;89.20;;;;;;5007715;28;20399;-78
2023/08/18 03:14:45;;;;;;;;;;;22.80;89.20;;;;;;5006315;28;19982;-77
2023/08/18 03:17:12;;;;;;;;;;;22.80;89.30;;;;;;5009722;28;19929;-78
2023/08/18 03:19:38;;;;;;;;;;;22.80;89.20;;;;;;5007412;28;19930;-79
2023/08/18 03:22:05;;;;;;;;;;;22.70;89.20;;;;;;5007904;28;19949;-78
2023/08/18 03:24:34;;;;;;;;;;;22.70;89.20;;;;;;5002159;28;20267;-78
2023/08/18 03:27:00;;;;;;;;;;;22.70;89.20;;;;;;5006439;28;19929;-78
2023/08/18 03:29:27;;;;;;;;;;;22.70;89.20;;;;;;5008201;28;19937;-77
2023/08/18 03:31:53;;;;;;;;;;;22.60;89.20;;;;;;5002388;28;19941;-78
2023/08/18 03:34:20;;;;;;;;;;;22.60;89.20;;;;;;5007104;28;19936;-79
2023/08/18 03:36:46;;;;;;;;;;;22.60;89.20;;;;;;5006505;28;20371;-78
2023/08/18 03:39:13;;;;;;;;;;;22.60;89.20;;;;;;5007422;28;19935;-78
2023/08/18 03:41:41;;;;;;;;;;;22.60;89.20;;;;;;5007249;28;19929;-78
2023/08/18 03:44:07;;;;;;;;;;;22.50;89.10;;;;;;5007070;28;19932;-79
2023/08/18 03:46:34;;;;;;;;;;;22.50;89.10;;;;;;5004034;28;19933;-79
2023/08/18 03:49:01;;;;;;;;;;;22.50;89.20;;;;;;5006121;28;19925;-77
2023/08/18 03:51:27;;;;;;;;;;;22.50;89.20;;;;;;5011012;28;19925;-78
2023/08/18 03:53:54;;;;;;;;;;;22.50;89.20;;;;;;5009249;28;19929;-78
2023/08/18 03:56:20;;;;;;;;;;;22.40;89.20;;;;;;5007665;28;19933;-78
2023/08/18 03:58:48;;;;;;;;;;;22.40;89.20;;;;;;5007077;28;19926;-78
2023/08/18 04:01:15;;;;;;;;;;;22.40;89.20;;;;;;5003934;28;19925;-78
2023/08/18 04:03:43;;;;;;;;;;;22.30;89.20;;;;;;5005220;28;20347;-77
2023/08/18 04:06:09;;;;;;;;;;;22.30;89.20;;;;;;5003418;28;20529;-78
2023/08/18 04:08:39;;;;;;;;;;;22.30;89.20;;;;;;5003238;28;19929;-79
2023/08/18 04:11:06;;;;;;;;;;;22.30;89.30;;;;;;5001182;28;19926;-78
2023/08/18 04:13:33;;;;;;;;;;;22.30;89.30;;;;;;5006680;28;20246;-78
2023/08/18 04:16:00;;;;;;;;;;;22.30;89.30;;;;;;5001509;28;19937;-78
2023/08/18 04:18:27;;;;;;;;;;;22.30;89.30;;;;;;5007496;28;19952;-78
2023/08/18 04:20:54;;;;;;;;;;;22.20;89.30;;;;;;5006274;28;19943;-79
2023/08/18 04:23:20;;;;;;;;;;;22.20;89.30;;;;;;5009191;28;19930;-79
2023/08/18 04:25:47;;;;;;;;;;;22.20;89.30;;;;;;5008020;28;19936;-78
2023/08/18 04:28:14;;;;;;;;;;;22.20;89.40;;;;;;5006751;28;19930;-79
2023/08/18 04:30:40;;;;;;;;;;;22.20;89.40;;;;;;5007598;28;19934;-79
2023/08/18 04:33:08;;;;;;;;;;;22.20;89.50;;;;;;5006967;28;19936;-78
2023/08/18 04:35:35;;;;;;;;;;;22.10;89.50;;;;;;5010912;28;19952;-78
2023/08/18 04:38:01;;;;;;;;;;;22.10;89.50;;;;;;5007722;28;20254;-78
2023/08/18 04:40:28;;;;;;;;;;;22.10;89.50;;;;;;5011802;28;20418;-78
2023/08/18 04:42:54;;;;;;;;;;;22.10;89.50;;;;;;5006117;28;19937;-79
2023/08/18 04:45:21;;;;;;;;;;;22.00;89.50;;;;;;5004796;28;19936;-79
2023/08/18 04:47:47;;;;;;;;;;;22.00;89.50;;;;;;5007225;28;19937;-79
2023/08/18 04:50:15;;;;;;;;;;;22.00;89.60;;;;;;5009534;28;19945;-79
2023/08/18 04:52:42;;;;;;;;;;;22.00;89.60;;;;;;5008702;28;19941;-79
2023/08/18 04:55:08;;;;;;;;;;;22.00;89.70;;;;;;5013946;28;19929;-79
2023/08/18 04:57:35;;;;;;;;;;;22.00;89.70;;;;;;5006422;28;19936;-78
2023/08/18 05:00:01;;;;;;;;;;;22.00;89.80;;;;;;5004388;28;20422;-80
2023/08/18 05:02:28;;;;;;;;;;;21.90;89.70;;;;;;5001280;28;19937;-78
2023/08/18 05:04:54;;;;;;;;;;;21.90;89.80;;;;;;5003757;28;20283;-78
2023/08/18 05:07:22;;;;;;;;;;;21.90;89.80;;;;;;5001143;28;19991;-78
2023/08/18 05:09:49;;;;;;;;;;;21.90;89.90;;;;;;5004241;28;20452;-79
2023/08/18 05:12:15;;;;;;;;;;;21.90;89.80;;;;;;5008632;28;20426;-79
2023/08/18 05:14:42;;;;;;;;;;;21.80;89.80;;;;;;5008590;28;20418;-80
2023/08/18 05:17:08;;;;;;;;;;;21.80;89.80;;;;;;5003652;28;19933;-79
2023/08/18 05:19:35;;;;;;;;;;;21.70;88.30;;;;;;5005523;28;20299;-79
2023/08/18 05:22:02;;;;;;;;;;;21.60;89.40;;;;;;5004565;28;19929;-79
2023/08/18 05:24:29;;;;;;;;;;;21.60;89.80;;;;;;5003393;28;19936;-78
2023/08/18 05:26:56;;;;;;;;;;;21.50;90.00;;;;;;5003592;28;19936;-78
2023/08/18 05:29:22;;;;;;;;;;;21.50;90.00;;;;;;5002072;28;19940;-79
2023/08/18 05:31:49;;;;;;;;;;;21.50;90.10;;;;;;5001095;28;19933;-79
2023/08/18 05:34:16;;;;;;;;;;;21.50;90.10;;;;;;5001889;28;20478;-79
2023/08/18 05:36:42;;;;;;;;;;;21.50;90.10;;;;;;5001076;28;19933;-79
2023/08/18 05:39:09;;;;;;;;;;;21.40;90.10;;;;;;5002805;28;19930;-78
2023/08/18 05:41:36;;;;;;;;;;;21.50;90.20;;;;;;5001027;28;20509;-79
2023/08/18 05:44:03;;;;;;;;;;;21.50;90.20;;;;;;5003914;28;20128;-79
2023/08/18 05:46:30;;;;;;;;;;;21.40;90.20;;;;;;4997897;28;19937;-79
2023/08/18 05:48:57;;;;;;;;;;;21.50;90.30;;;;;;5002076;28;20369;-79
2023/08/18 05:51:23;;;;;;;;;;;21.40;90.30;;;;;;5004265;28;20713;-79
2023/08/18 05:53:50;;;;;;;;;;;21.40;90.30;;;;;;5002567;28;20008;-79
2023/08/18 05:56:17;;;;;;;;;;;21.40;90.30;;;;;;5004309;28;20310;-79
2023/08/18 05:58:45;;;;;;;;;;;21.40;90.40;;;;;;5002853;28;19941;-79
2023/08/18 06:01:12;;;;;;;;;;;21.40;90.40;;;;;;5001526;28;19937;-78
2023/08/18 06:03:38;;;;;;;;;;;21.30;90.70;;;;;;5003497;28;19930;-79
2023/08/18 06:06:05;;;;;;;;;;;21.40;90.40;;;;;;5001857;28;19956;-79
2023/08/18 06:08:31;;;;;;;;;;;21.30;90.40;;;;;;5000120;28;19941;-79
2023/08/18 06:10:58;;;;;;;;;;;21.30;90.50;;;;;;5002930;28;19929;-79
2023/08/18 06:13:25;;;;;;;;;;;21.30;90.50;;;;;;5003063;28;19930;-79
2023/08/18 06:15:54;;;;;;;;;;;21.30;90.50;;;;;;4998979;28;20497;-79
2023/08/18 06:18:20;;;;;;;;;;;21.30;90.50;;;;;;5004030;28;20366;-79
2023/08/18 06:20:47;;;;;;;;;;;21.30;90.50;;;;;;5001857;28;19929;-78
2023/08/18 06:23:13;;;;;;;;;;;21.30;90.60;;;;;;5005895;28;19940;-80
2023/08/18 06:25:40;;;;;;;;;;;21.30;90.60;;;;;;5000316;28;19934;-80
2023/08/18 06:28:07;;;;;;;;;;;21.20;90.60;;;;;;5003690;28;19929;-79
2023/08/18 06:30:34;;;;;;;;;;;21.20;90.60;;;;;;5003135;28;20021;-80
2023/08/18 06:33:02;;;;;;;;;;;21.20;90.60;;;;;;5000841;28;19936;-80
2023/08/18 06:35:29;;;;;;;;;;;21.20;90.60;;;;;;5003400;28;19937;-79
2023/08/18 06:37:55;;;;;;;;;;;21.20;90.60;;;;;;5004784;28;19933;-79
2023/08/18 06:40:22;;;;;;;;;;;21.20;90.70;;;;;;5005214;28;19937;-80
2023/08/18 06:42:49;;;;;;;;;;;21.20;90.70;;;;;;5001729;28;19929;-79
2023/08/18 06:45:15;;;;;;;;;;;21.20;90.70;;;;;;4996999;28;20458;-78
2023/08/18 06:47:43;;;;;;;;;;;21.20;90.70;;;;;;5004052;28;19952;-79
2023/08/18 06:50:11;;;;;;;;;;;21.20;90.70;;;;;;5005341;28;20458;-79
2023/08/18 06:52:37;;;;;;;;;;;21.20;90.70;;;;;;5005641;28;19933;-79
2023/08/18 06:55:04;;;;;;;;;;;21.20;90.70;;;;;;5003136;28;19937;-79
2023/08/18 06:57:31;;;;;;;;;;;21.20;90.70;;;;;;5002216;28;20465;-79
2023/08/18 06:59:57;;;;;;;;;;;21.20;90.70;;;;;;5007007;28;20254;-80
2023/08/18 07:02:24;;;;;;;;;;;21.20;90.70;;;;;;5004499;28;19941;-79
2023/08/18 07:04:50;;;;;;;;;;;21.20;90.70;;;;;;5010558;28;19930;-79
2023/08/18 07:07:18;;;;;;;;;;;21.20;90.80;;;;;;5011142;28;19937;-79
2023/08/18 07:09:45;;;;;;;;;;;21.20;90.80;;;;;;5007748;28;19929;-79
2023/08/18 07:12:11;;;;;;;;;;;21.20;90.80;;;;;;5004914;28;19937;-80
2023/08/18 07:14:38;;;;;;;;;;;21.20;91.10;;;;;;5004715;28;19929;-81
2023/08/18 07:17:04;;;;;;;;;;;21.30;90.80;;;;;;4999911;28;19929;-80
2023/08/18 07:19:31;;;;;;;;;;;21.30;90.80;;;;;;5012060;28;19933;-79
2023/08/18 07:21:57;;;;;;;;;;;21.30;90.80;;;;;;5004043;28;19945;-80
2023/08/18 07:24:25;;;;;;;;;;;21.30;90.80;;;;;;5007270;28;19929;-79
2023/08/18 07:26:53;;;;;;;;;;;21.30;90.90;;;;;;5006891;28;19930;-78
2023/08/18 07:29:20;;;;;;;;;;;21.30;90.80;;;;;;5009389;28;19929;-80
2023/08/18 07:31:46;;;;;;;;;;;21.30;90.80;;;;;;5003039;28;19933;-79
2023/08/18 07:34:13;;;;;;;;;;;21.40;90.70;;;;;;5001328;28;19935;-80
2023/08/18 07:36:39;;;;;;;;;;;21.40;90.80;;;;;;5007855;28;19956;-80
2023/08/18 07:39:10;;;;;;;;;;;21.40;90.70;;;;;;5005217;28;20350;-81
2023/08/18 07:41:38;;;;;;;;;;;21.40;90.70;;;;;;5001332;28;19936;-79
2023/08/18 07:44:05;;;;;;;;;;;21.40;90.70;;;;;;5003951;28;20441;-79
2023/08/18 07:46:32;;;;;;;;;;;21.40;90.70;;;;;;5005212;28;19932;-79
2023/08/18 07:48:59;;;;;;;;;;;21.40;90.60;;;;;;5005290;28;19933;-79
2023/08/18 07:51:25;;;;;;;;;;;21.50;90.60;;;;;;5006661;28;19987;-80
2023/08/18 07:53:52;;;;;;;;;;;21.40;90.60;;;;;;5002870;28;19933;-79
2023/08/18 07:56:18;;;;;;;;;;;21.50;90.60;;;;;;5007421;28;19929;-78
2023/08/18 07:58:46;;;;;;;;;;;21.50;90.60;;;;;;5006734;28;20693;-79
2023/08/18 08:01:13;;;;;;;;;;;21.50;90.60;;;;;;5003257;28;19936;-79
2023/08/18 08:03:40;;;;;;;;;;;21.50;90.60;;;;;;5000726;28;19941;-79
2023/08/18 08:06:07;;;;;;;;;;;21.50;90.60;;;;;;5001326;28;20147;-78
2023/08/18 08:08:33;;;;;;;;;;;21.60;90.60;;;;;;4991143;28;19942;-79
2023/08/18 08:11:00;;;;;;;;;;;21.60;90.60;;;;;;4988831;28;19968;-79
2023/08/18 08:13:28;;;;;;;;;;;21.60;90.60;;;;;;4996639;28;19936;-79
2023/08/18 08:15:56;;;;;;;;;;;21.60;90.60;;;;;;4999216;28;20387;-79
2023/08/18 08:18:23;;;;;;;;;;;21.70;90.60;;;;;;5007526;28;20304;-80
2023/08/18 08:20:49;;;;;;;;;;;21.70;90.60;;;;;;5004069;28;20339;-78
2023/08/18 08:23:16;;;;;;;;;;;21.70;90.60;;;;;;5005234;28;19933;-79
2023/08/18 08:25:43;;;;;;;;;;;21.70;90.50;;;;;;5006491;28;20438;-79
2023/08/18 08:28:09;;;;;;;;;;;21.70;90.50;;;;;;5002825;28;19940;-78
2023/08/18 08:30:38;;;;;;;;;;;21.70;90.50;;;;;;5005155;28;20622;-78
2023/08/18 08:33:06;;;;;;;;;;;21.80;90.50;;;;;;5007061;28;19991;-79
2023/08/18 08:35:33;;;;;;;;;;;21.80;90.50;;;;;;5008712;28;20352;-79
2023/08/18 08:37:59;;;;;;;;;;;21.80;90.40;;;;;;5006545;28;19936;-79
2023/08/18 08:40:26;;;;;;;;;;;21.80;90.30;;;;;;5002402;28;19944;-75
2023/08/18 08:42:53;;;;;;;;;;;21.90;90.30;;;;;;5001046;28;19936;-75
2023/08/18 08:45:20;;;;;;;;;;;21.90;90.30;;;;;;5004462;28;19941;-75
2023/08/18 08:47:48;;;;;;;;;;;21.90;90.30;;;;;;5005499;28;19937;-75
2023/08/18 08:50:16;;;;;;;;;;;22.00;90.20;;;;;;5006759;28;19934;-75
2023/08/18 08:52:45;;;;;;;;;;;22.00;90.20;;;;;;5006408;28;20468;-74
2023/08/18 08:55:13;;;;;;;;;;;22.10;90.10;;;;;;5005229;28;19933;-75
2023/08/18 08:57:40;;;;;;;;;;;22.10;90.10;;;;;;5000707;28;20638;-75
2023/08/18 09:00:07;;;;;;;;;;;22.20;90.00;;;;;;5001550;28;20660;-75
2023/08/18 09:02:33;;;;;;;;;;;22.20;90.00;;;;;;5004796;28;19933;-75
2023/08/18 09:05:01;;;;;;;;;;;22.20;90.00;;;;;;5006187;28;19929;-74
2023/08/18 09:07:29;;;;;;;;;;;22.30;89.80;;;;;;5003623;28;20015;-75
2023/08/18 09:09:56;;;;;;;;;;;22.30;89.60;;;;;;5003872;28;19937;-75
2023/08/18 09:12:26;;;;;;;;;;;22.40;89.40;;;;;;5002807;28;19937;-80
2023/08/18 09:14:54;;;;;;;;;;;22.40;89.20;;;;;;5005481;28;19955;-79
2023/08/18 09:17:20;;;;;;;;;;;22.50;89.50;;;;;;4999837;28;19937;-80
2023/08/18 09:19:48;;;;;;;;;;;22.60;89.30;;;;;;5003997;28;19929;-79
2023/08/18 09:22:14;;;;;;;;;;;22.60;88.80;;;;;;4994915;28;19936;-79
2023/08/18 09:24:46;;;;;;;;;;;22.70;88.70;;;;;;5000241;28;19929;-73
2023/08/18 09:27:15;;;;;;;;;;;22.80;88.50;;;;;;5004966;28;20398;-73
2023/08/18 09:29:42;;;;;;;;;;;22.80;88.40;;;;;;5004398;28;19937;-73
2023/08/18 09:32:08;;;;;;;;;;;22.90;88.20;;;;;;4999668;28;19937;-73
2023/08/18 09:34:36;;;;;;;;;;;22.90;87.90;;;;;;5004626;28;19933;-73
2023/08/18 09:37:03;;;;;;;;;;;23.00;87.70;;;;;;5000553;28;19937;-74
2023/08/18 09:39:29;;;;;;;;;;;23.10;87.20;;;;;;5004960;28;20414;-73
2023/08/18 09:41:58;;;;;;;;;;;23.10;87.10;;;;;;5005309;28;19936;-79
2023/08/18 09:44:26;;;;;;;;;;;23.20;86.70;;;;;;5004067;28;19944;-79
2023/08/18 09:46:55;;;;;;;;;;;23.30;86.30;;;;;;5003511;28;19936;-79
2023/08/18 09:49:22;;;;;;;;;;;23.30;86.30;;;;;;4999577;28;19937;-77
2023/08/18 09:51:51;;;;;;;;;;;23.40;86.10;;;;;;4997303;28;19952;-79
2023/08/18 09:54:19;;;;;;;;;;;23.50;86.00;;;;;;5000943;28;20397;-79
2023/08/18 09:56:46;;;;;;;;;;;23.50;85.80;;;;;;5004960;28;19937;-79
2023/08/18 09:59:17;;;;;;;;;;;23.60;85.70;;;;;;5000631;28;19933;-79
2023/08/18 10:01:45;;;;;;;;;;;23.60;85.00;;;;;;5003076;28;19939;-78
2023/08/18 10:04:11;;;;;;;;;;;23.70;85.30;;;;;;5000368;28;19925;-78
2023/08/18 10:06:39;;;;;;;;;;;23.80;85.20;;;;;;5002336;28;19929;-77
2023/08/18 10:09:06;;;;;;;;;;;23.80;84.80;;;;;;4999444;28;20040;-77
2023/08/18 10:11:34;;;;;;;;;;;23.90;84.70;;;;;;5000179;28;19936;-77
2023/08/18 10:14:02;;;;;;;;;;;24.00;84.60;;;;;;4995847;28;19937;-79
2023/08/18 10:16:30;;;;;;;;;;;24.00;84.40;;;;;;4992897;28;19940;-78
2023/08/18 10:18:57;;;;;;;;;;;24.10;84.10;;;;;;4995013;28;19929;-78
2023/08/18 10:21:23;;;;;;;;;;;24.10;83.70;;;;;;4989259;28;19933;-78
2023/08/18 10:23:50;;;;;;;;;;;24.20;83.40;;;;;;4992748;28;19937;-77
2023/08/18 10:26:16;;;;;;;;;;;24.30;83.50;;;;;;4995357;28;19933;-78
2023/08/18 10:28:43;;;;;;;;;;;24.40;83.10;;;;;;4999753;28;19929;-77
2023/08/18 10:31:11;;;;;;;;;;;24.50;82.80;;;;;;5000392;28;19976;-79
2023/08/18 10:33:43;;;;;;;;;;;24.60;82.70;;;;;;4997295;28;19933;-77
2023/08/18 10:36:10;;;;;;;;;;;24.60;82.00;;;;;;5002381;28;19937;-77
2023/08/18 10:38:39;;;;;;;;;;;24.70;81.70;;;;;;5005196;28;20600;-76
2023/08/18 10:41:05;;;;;;;;;;;24.80;81.20;;;;;;5004648;28;20478;-78
2023/08/18 10:43:41;;;;;;;;;;;24.90;81.10;;;;;;4998135;28;19940;-78
2023/08/18 10:46:11;;;;;;;;;;;25.00;81.10;;;;;;4997556;28;20403;-79
2023/08/18 10:48:37;;;;;;;;;;;25.10;80.50;;;;;;5006182;28;20409;-80
2023/08/18 10:51:05;;;;;;;;;;;25.10;80.70;;;;;;5005694;28;19936;-79
2023/08/18 10:53:37;;;;;;;;;;;25.10;80.60;;;;;;5004785;28;19937;-79
2023/08/18 10:56:04;;;;;;;;;;;25.20;80.60;;;;;;5010009;28;20039;-79
2023/08/18 10:58:31;;;;;;;;;;;25.30;80.50;;;;;;5005126;28;19937;-80
2023/08/18 11:00:58;;;;;;;;;;;25.40;80.30;;;;;;5005916;28;19929;-77
2023/08/18 11:03:25;;;;;;;;;;;25.40;80.20;;;;;;4994608;28;19936;-76
2023/08/18 11:05:51;;;;;;;;;;;25.50;80.00;;;;;;5006347;28;19933;-77
2023/08/18 11:08:19;;;;;;;;;;;25.60;79.60;;;;;;5005466;28;20069;-78
2023/08/18 11:10:48;;;;;;;;;;;25.60;79.40;;;;;;5004834;28;21263;-77
2023/08/18 11:13:21;;;;;;;;;;;25.70;79.20;;;;;;5000236;28;19929;-77
2023/08/18 11:15:49;;;;;;;;;;;25.80;79.20;;;;;;5004625;28;20393;-77
2023/08/18 11:18:15;;;;;;;;;;;25.90;78.80;;;;;;4997976;28;19941;-77
2023/08/18 11:20:42;;;;;;;;;;;25.90;78.70;;;;;;5004107;28;20334;-78
2023/08/18 11:23:09;;;;;;;;;;;26.00;78.70;;;;;;5002276;28;19929;-77
2023/08/18 11:25:37;;;;;;;;;;;26.10;78.60;;;;;;5005414;28;19938;-77
2023/08/18 11:28:04;;;;;;;;;;;26.10;78.30;;;;;;5007248;28;19930;-77
2023/08/18 11:30:32;;;;;;;;;;;26.30;78.30;;;;;;5003434;28;20023;-76
2023/08/18 11:32:58;;;;;;;;;;;26.30;77.90;;;;;;5008318;28;19937;-77
2023/08/18 11:35:26;;;;;;;;;;;26.40;77.70;;;;;;5001274;28;19937;-77
2023/08/18 11:37:52;;;;;;;;;;;26.40;76.40;;;;;;5002953;28;19972;-78
2023/08/18 11:40:19;;;;;;;;;;;26.50;76.50;;;;;;5002933;28;20423;-76
2023/08/18 11:42:49;;;;;;;;;;;26.60;76.40;;;;;;5007493;28;19933;-78
2023/08/18 11:45:16;;;;;;;;;;;26.60;76.20;;;;;;5003990;28;19930;-78
2023/08/18 11:47:43;;;;;;;;;;;26.80;76.30;;;;;;5006669;28;20740;-78
2023/08/18 11:50:13;;;;;;;;;;;26.80;75.30;;;;;;5002762;28;19933;-78
2023/08/18 11:52:43;;;;;;;;;;;26.90;75.10;;;;;;5003888;28;20293;-78
2023/08/18 11:55:09;;;;;;;;;;;27.00;75.20;;;;;;5004013;28;19930;-79
2023/08/18 11:57:40;;;;;;;;;;;27.00;74.50;;;;;;5005386;28;20544;-79
2023/08/18 12:00:13;;;;;;;;;;;27.10;74.80;;;;;;5006922;28;19987;-79
2023/08/18 12:02:43;;;;;;;;;;;27.10;74.40;;;;;;5006824;28;20383;-79
2023/08/18 12:05:21;;;;;;;;;;;27.20;74.10;;;;;;5004643;28;19988;-78
2023/08/18 12:07:48;;;;;;;;;;;27.30;74.00;;;;;;5007598;28;19929;-77
2023/08/18 12:10:14;;;;;;;;;;;27.40;73.80;;;;;;5006070;28;20311;-79
2023/08/18 12:12:41;;;;;;;;;;;27.40;73.30;;;;;;5005226;28;19930;-77
2023/08/18 12:15:10;;;;;;;;;;;27.50;73.20;;;;;;5004347;28;19929;-80
2023/08/18 12:17:36;;;;;;;;;;;27.50;73.10;;;;;;5002865;28;19941;-79
2023/08/18 12:20:06;;;;;;;;;;;27.60;72.80;;;;;;5004858;28;19929;-78
2023/08/18 12:22:32;;;;;;;;;;;27.70;72.80;;;;;;5004426;28;19930;-78
2023/08/18 12:24:59;;;;;;;;;;;27.80;72.50;;;;;;5003897;28;19956;-78
2023/08/18 12:27:29;;;;;;;;;;;27.80;72.10;;;;;;5006161;28;20786;-79
2023/08/18 12:29:55;;;;;;;;;;;27.90;71.80;;;;;;5004984;28;20024;-78
2023/08/18 12:32:23;;;;;;;;;;;28.00;71.10;;;;;;5003810;28;20342;-78
2023/08/18 12:34:51;;;;;;;;;;;28.00;71.00;;;;;;5005975;28;20280;-79
2023/08/18 12:37:18;;;;;;;;;;;28.10;70.90;;;;;;5005836;28;19936;-79
2023/08/18 12:39:46;;;;;;;;;;;28.10;70.50;;;;;;5005287;28;19968;-79
2023/08/18 12:42:13;;;;;;;;;;;28.20;70.70;;;;;;5002359;28;19936;-80
2023/08/18 12:44:39;;;;;;;;;;;28.30;69.40;;;;;;5005657;28;19934;-79
2023/08/18 12:47:06;;;;;;;;;;;28.30;69.20;;;;;;4998163;28;19984;-77
2023/08/18 12:49:34;;;;;;;;;;;28.40;69.30;;;;;;5003573;28;19929;-77
2023/08/18 12:52:01;;;;;;;;;;;28.40;69.20;;;;;;5000289;28;19936;-78
2023/08/18 12:54:28;;;;;;;;;;;28.50;68.90;;;;;;5003651;28;19936;-77
2023/08/18 12:56:54;;;;;;;;;;;28.60;68.30;;;;;;4996667;28;20674;-77
2023/08/18 12:59:21;;;;;;;;;;;28.60;67.60;;;;;;5001408;28;20402;-78
2023/08/18 13:01:48;;;;;;;;;;;28.70;68.00;;;;;;5004308;28;19936;-78
2023/08/18 13:04:15;;;;;;;;;;;28.70;65.80;;;;;;5005747;28;19929;-78
2023/08/18 13:06:42;;;;;;;;;;;28.80;66.10;;;;;;5005361;28;20391;-78
2023/08/18 13:09:09;;;;;;;;;;;28.90;65.50;;;;;;5007800;28;20379;-78
2023/08/18 13:11:36;;;;;;;;;;;28.90;66.60;;;;;;5007206;28;19941;-78
2023/08/18 13:14:04;;;;;;;;;;;29.00;66.70;;;;;;4993682;28;19940;-81
2023/08/18 13:16:31;;;;;;;;;;;29.00;66.50;;;;;;4997578;28;19958;-81
2023/08/18 13:18:58;;;;;;;;;;;29.10;66.00;;;;;;5003216;28;19930;-80
2023/08/18 13:21:24;;;;;;;;;;;29.10;65.00;;;;;;5005568;28;19934;-78
2023/08/18 13:23:54;;;;;;;;;;;29.20;65.20;;;;;;5002444;28;19936;-79
2023/08/18 13:26:20;;;;;;;;;;;29.20;65.50;;;;;;5002023;28;20286;-79
2023/08/18 13:28:47;;;;;;;;;;;29.30;64.00;;;;;;5003543;28;20334;-79
2023/08/18 13:31:13;;;;;;;;;;;29.30;64.10;;;;;;4997041;28;20398;-79
2023/08/18 13:33:40;;;;;;;;;;;29.40;64.50;;;;;;5000450;28;19929;-81
2023/08/18 13:36:07;;;;;;;;;;;29.50;64.60;;;;;;5005120;28;19940;-79
2023/08/18 13:38:33;;;;;;;;;;;29.50;64.30;;;;;;4999536;28;20384;-80
2023/08/18 13:41:01;;;;;;;;;;;29.60;63.40;;;;;;5003161;28;19940;-79
2023/08/18 13:43:28;;;;;;;;;;;29.70;62.90;;;;;;4998439;28;19929;-79
2023/08/18 13:45:55;;;;;;;;;;;29.70;63.20;;;;;;5000651;28;19936;-78
2023/08/18 13:48:21;;;;;;;;;;;29.80;63.10;;;;;;4999589;28;19972;-78
2023/08/18 13:50:48;;;;;;;;;;;29.80;62.50;;;;;;4994320;28;19930;-77
2023/08/18 13:53:14;;;;;;;;;;;29.90;62.30;;;;;;5003011;28;19934;-77
2023/08/18 13:55:43;;;;;;;;;;;29.90;61.60;;;;;;4998705;28;19983;-78
2023/08/18 13:58:11;;;;;;;;;;;30.00;61.90;;;;;;5002096;28;19940;-78
2023/08/18 14:00:38;;;;;;;;;;;30.10;61.90;;;;;;5002198;28;20311;-79
2023/08/18 14:03:05;;;;;;;;;;;30.10;61.80;;;;;;4997158;28;19952;-79
2023/08/18 14:05:31;;;;;;;;;;;30.20;61.80;;;;;;5004269;28;19933;-78
2023/08/18 14:07:58;;;;;;;;;;;30.20;61.80;;;;;;5001637;28;19937;-80
2023/08/18 14:10:24;;;;;;;;;;;30.30;61.80;;;;;;5003791;28;19929;-79
2023/08/18 14:12:51;;;;;;;;;;;30.30;61.20;;;;;;5003362;28;19940;-80
2023/08/18 14:15:19;;;;;;;;;;;30.40;60.80;;;;;;5001086;28;19941;-80